sensor_id;sensor_type;location;lat;lon;timestamp;noise_LAeq;noise_LA_min;noise_LA_max;noise_LA01;noise_LA95
61095;Laerm;20450;49.074;9.158;2023-05-10T00:00:16;42.48;40.13;44.15;;
61095;Laerm;20450;49.074;9.158;2023-05-10T00:02:43;42.60;40.53;44.27;;
61095;Laerm;20450;49.074;9.158;2023-05-10T00:05:10;42.69;40.80;44.54;;
61095;Laerm;20450;49.074;9.158;2023-05-10T00:07:37;42.65;40.53;44.19;;
61095;Laerm;20450;49.074;9.158;2023-05-10T00:10:05;42.69;40.62;44.11;;
61095;Laerm;20450;49.074;9.158;2023-05-10T00:12:32;42.60;40.33;44.23;;
61095;Laerm;20450;49.074;9.158;2023-05-10T00:14:59;42.58;40.23;44.07;;
61095;Laerm;20450;49.074;9.158;2023-05-10T00:17:27;42.64;40.80;45.63;;
61095;Laerm;20450;49.074;9.158;2023-05-10T00:19:54;42.66;40.62;44.11;;
61095;Laerm;20450;49.074;9.158;2023-05-10T00:22:22;42.75;40.53;44.19;;
61095;Laerm;20450;49.074;9.158;2023-05-10T00:24:48;42.64;40.13;48.87;;
61095;Laerm;20450;49.074;9.158;2023-05-10T00:27:15;42.45;40.23;47.30;;
61095;Laerm;20450;49.074;9.158;2023-05-10T00:29:43;42.71;40.53;47.59;;
61095;Laerm;20450;49.074;9.158;2023-05-10T00:32:10;42.61;40.54;45.57;;
61095;Laerm;20450;49.074;9.158;2023-05-10T00:34:38;42.74;40.89;44.35;;
61095;Laerm;20450;49.074;9.158;2023-05-10T00:37:05;42.60;40.23;49.91;;
61095;Laerm;20450;49.074;9.158;2023-05-10T00:39:32;42.59;40.23;44.23;;
61095;Laerm;20450;49.074;9.158;2023-05-10T00:41:59;42.69;40.71;44.31;;
61095;Laerm;20450;49.074;9.158;2023-05-10T00:44:26;42.68;40.62;44.43;;
61095;Laerm;20450;49.074;9.158;2023-05-10T00:46:54;42.75;40.33;44.31;;
61095;Laerm;20450;49.074;9.158;2023-05-10T00:49:21;42.78;40.43;44.51;;
61095;Laerm;20450;49.074;9.158;2023-05-10T00:51:50;42.67;40.13;44.27;;
61095;Laerm;20450;49.074;9.158;2023-05-10T00:54:17;42.83;40.89;44.23;;
61095;Laerm;20450;49.074;9.158;2023-05-10T00:56:45;42.80;40.43;44.31;;
61095;Laerm;20450;49.074;9.158;2023-05-10T00:59:12;42.70;40.62;44.23;;
61095;Laerm;20450;49.074;9.158;2023-05-10T01:01:39;42.89;40.43;47.38;;
61095;Laerm;20450;49.074;9.158;2023-05-10T01:04:06;42.80;40.43;44.07;;
61095;Laerm;20450;49.074;9.158;2023-05-10T01:06:33;42.64;38.95;44.35;;
61095;Laerm;20450;49.074;9.158;2023-05-10T01:09:01;42.58;40.23;44.19;;
61095;Laerm;20450;49.074;9.158;2023-05-10T01:11:28;42.57;40.33;44.03;;
61095;Laerm;20450;49.074;9.158;2023-05-10T01:13:57;42.69;40.53;45.07;;
61095;Laerm;20450;49.074;9.158;2023-05-10T01:16:26;42.65;39.34;44.12;;
61095;Laerm;20450;49.074;9.158;2023-05-10T01:18:55;42.89;41.14;44.19;;
61095;Laerm;20450;49.074;9.158;2023-05-10T01:21:32;42.77;40.80;44.62;;
61095;Laerm;20450;49.074;9.158;2023-05-10T01:24:51;42.74;40.43;44.23;;
61095;Laerm;20450;49.074;9.158;2023-05-10T01:27:51;42.86;40.89;44.47;;
61095;Laerm;20450;49.074;9.158;2023-05-10T01:33:46;42.85;40.80;44.31;;
61095;Laerm;20450;49.074;9.158;2023-05-10T01:36:24;42.74;40.71;44.27;;
61095;Laerm;20450;49.074;9.158;2023-05-10T01:39:06;43.12;40.98;44.69;;
61095;Laerm;20450;49.074;9.158;2023-05-10T01:41:48;43.01;40.89;44.35;;
61095;Laerm;20450;49.074;9.158;2023-05-10T01:44:24;42.96;40.89;55.89;;
61095;Laerm;20450;49.074;9.158;2023-05-10T01:47:02;43.03;40.62;56.55;;
61095;Laerm;20450;49.074;9.158;2023-05-10T01:49:40;43.12;41.22;54.43;;
61095;Laerm;20450;49.074;9.158;2023-05-10T01:52:12;43.08;41.14;54.08;;
61095;Laerm;20450;49.074;9.158;2023-05-10T01:54:49;42.97;40.71;53.13;;
61095;Laerm;20450;49.074;9.158;2023-05-10T01:57:19;43.12;41.61;54.33;;
61095;Laerm;20450;49.074;9.158;2023-05-10T01:59:51;43.07;41.30;50.23;;
61095;Laerm;20450;49.074;9.158;2023-05-10T02:02:21;43.03;41.06;52.39;;
61095;Laerm;20450;49.074;9.158;2023-05-10T02:04:50;43.02;40.80;55.09;;
61095;Laerm;20450;49.074;9.158;2023-05-10T02:07:19;43.18;41.38;44.54;;
61095;Laerm;20450;49.074;9.158;2023-05-10T02:09:47;42.99;40.80;45.63;;
61095;Laerm;20450;49.074;9.158;2023-05-10T02:12:16;42.86;40.62;44.39;;
61095;Laerm;20450;49.074;9.158;2023-05-10T02:14:46;42.93;40.43;45.60;;
61095;Laerm;20450;49.074;9.158;2023-05-10T02:17:14;43.10;41.46;45.83;;
61095;Laerm;20450;49.074;9.158;2023-05-10T02:19:43;43.15;40.98;44.39;;
61095;Laerm;20450;49.074;9.158;2023-05-10T02:22:15;43.19;41.06;44.76;;
61095;Laerm;20450;49.074;9.158;2023-05-10T02:24:45;43.07;41.14;45.01;;
61095;Laerm;20450;49.074;9.158;2023-05-10T02:27:15;43.24;41.38;45.07;;
61095;Laerm;20450;49.074;9.158;2023-05-10T02:29:44;43.18;41.30;46.35;;
61095;Laerm;20450;49.074;9.158;2023-05-10T02:32:12;43.19;41.46;44.69;;
61095;Laerm;20450;49.074;9.158;2023-05-10T02:34:41;43.19;41.61;44.69;;
61095;Laerm;20450;49.074;9.158;2023-05-10T02:37:09;43.10;41.46;44.73;;
61095;Laerm;20450;49.074;9.158;2023-05-10T02:39:38;43.23;41.38;44.43;;
61095;Laerm;20450;49.074;9.158;2023-05-10T02:42:06;43.08;40.89;44.47;;
61095;Laerm;20450;49.074;9.158;2023-05-10T02:44:37;43.12;41.30;44.54;;
61095;Laerm;20450;49.074;9.158;2023-05-10T02:47:05;43.07;41.22;44.54;;
61095;Laerm;20450;49.074;9.158;2023-05-10T02:49:32;43.11;41.30;47.14;;
61095;Laerm;20450;49.074;9.158;2023-05-10T02:52:04;43.05;40.98;44.51;;
61095;Laerm;20450;49.074;9.158;2023-05-10T02:54:42;43.23;40.98;45.48;;
61095;Laerm;20450;49.074;9.158;2023-05-10T02:57:16;43.56;41.68;51.35;;
61095;Laerm;20450;49.074;9.158;2023-05-10T02:59:43;43.24;41.22;44.65;;
61095;Laerm;20450;49.074;9.158;2023-05-10T03:02:12;43.21;41.46;44.42;;
61095;Laerm;20450;49.074;9.158;2023-05-10T03:04:39;43.18;41.46;44.39;;
61095;Laerm;20450;49.074;9.158;2023-05-10T03:12:09;43.46;41.22;52.60;;
61095;Laerm;20450;49.074;9.158;2023-05-10T03:14:49;43.40;41.46;45.42;;
61095;Laerm;20450;49.074;9.158;2023-05-10T03:17:27;43.48;41.68;45.89;;
61095;Laerm;20450;49.074;9.158;2023-05-10T03:20:01;43.41;41.46;45.62;;
61095;Laerm;20450;49.074;9.158;2023-05-10T03:22:36;43.56;41.75;46.62;;
61095;Laerm;20450;49.074;9.158;2023-05-10T03:25:07;43.40;41.89;45.60;;
61095;Laerm;20450;49.074;9.158;2023-05-10T03:27:40;43.46;41.75;49.80;;
61095;Laerm;20450;49.074;9.158;2023-05-10T03:30:11;43.80;41.96;55.34;;
61095;Laerm;20450;49.074;9.158;2023-05-10T03:32:38;44.13;41.82;53.05;;
61095;Laerm;20450;49.074;9.158;2023-05-10T03:35:07;43.68;42.09;55.24;;
61095;Laerm;20450;49.074;9.158;2023-05-10T03:37:34;43.93;41.68;53.06;;
61095;Laerm;20450;49.074;9.158;2023-05-10T03:40:01;43.68;42.16;48.73;;
61095;Laerm;20450;49.074;9.158;2023-05-10T03:42:30;43.74;42.22;49.88;;
61095;Laerm;20450;49.074;9.158;2023-05-10T03:44:59;43.48;41.82;46.35;;
61095;Laerm;20450;49.074;9.158;2023-05-10T03:47:25;43.59;41.96;46.50;;
61095;Laerm;20450;49.074;9.158;2023-05-10T03:49:52;43.49;41.75;50.68;;
61095;Laerm;20450;49.074;9.158;2023-05-10T03:52:21;43.70;41.75;53.62;;
61095;Laerm;20450;49.074;9.158;2023-05-10T03:54:49;43.75;41.30;54.64;;
61095;Laerm;20450;49.074;9.158;2023-05-10T03:57:16;43.77;41.61;54.05;;
61095;Laerm;20450;49.074;9.158;2023-05-10T03:59:43;43.93;41.82;54.19;;
61095;Laerm;20450;49.074;9.158;2023-05-10T04:02:11;43.67;41.82;53.95;;
61095;Laerm;20450;49.074;9.158;2023-05-10T04:04:38;43.89;41.46;54.27;;
61095;Laerm;20450;49.074;9.158;2023-05-10T04:07:05;44.03;41.89;54.95;;
61095;Laerm;20450;49.074;9.158;2023-05-10T04:09:33;43.67;41.89;55.53;;
61095;Laerm;20450;49.074;9.158;2023-05-10T04:12:00;43.21;41.53;45.63;;
61095;Laerm;20450;49.074;9.158;2023-05-10T04:14:27;43.63;41.68;51.38;;
61095;Laerm;20450;49.074;9.158;2023-05-10T04:16:54;43.58;41.75;51.94;;
61095;Laerm;20450;49.074;9.158;2023-05-10T04:19:23;43.96;41.46;54.48;;
61095;Laerm;20450;49.074;9.158;2023-05-10T04:21:50;43.82;41.61;54.63;;
61095;Laerm;20450;49.074;9.158;2023-05-10T04:24:17;43.69;41.82;49.45;;
61095;Laerm;20450;49.074;9.158;2023-05-10T04:26:44;43.66;41.46;51.03;;
61095;Laerm;20450;49.074;9.158;2023-05-10T04:29:11;43.92;41.89;53.86;;
61095;Laerm;20450;49.074;9.158;2023-05-10T04:31:38;43.57;41.96;50.12;;
61095;Laerm;20450;49.074;9.158;2023-05-10T04:34:05;43.58;41.96;54.88;;
61095;Laerm;20450;49.074;9.158;2023-05-10T04:36:33;43.90;42.09;52.76;;
61095;Laerm;20450;49.074;9.158;2023-05-10T04:39:01;43.55;41.61;52.31;;
61095;Laerm;20450;49.074;9.158;2023-05-10T04:41:28;43.62;40.96;53.58;;
61095;Laerm;20450;49.074;9.158;2023-05-10T04:43:56;43.61;41.82;53.03;;
61095;Laerm;20450;49.074;9.158;2023-05-10T04:46:22;43.75;41.82;52.18;;
61095;Laerm;20450;49.074;9.158;2023-05-10T04:48:50;43.68;41.30;53.52;;
61095;Laerm;20450;49.074;9.158;2023-05-10T04:51:17;43.94;41.96;55.00;;
61095;Laerm;20450;49.074;9.158;2023-05-10T04:53:45;43.52;41.75;47.20;;
61095;Laerm;20450;49.074;9.158;2023-05-10T04:56:27;43.46;41.53;46.05;;
61095;Laerm;20450;49.074;9.158;2023-05-10T04:58:54;43.74;41.82;51.15;;
61095;Laerm;20450;49.074;9.158;2023-05-10T05:01:21;43.88;41.68;54.58;;
61095;Laerm;20450;49.074;9.158;2023-05-10T05:03:48;43.72;41.30;52.62;;
61095;Laerm;20450;49.074;9.158;2023-05-10T05:06:15;43.79;41.82;49.44;;
61095;Laerm;20450;49.074;9.158;2023-05-10T05:08:42;43.70;41.68;50.31;;
61095;Laerm;20450;49.074;9.158;2023-05-10T05:11:11;43.86;41.46;51.87;;
61095;Laerm;20450;49.074;9.158;2023-05-10T05:13:38;43.95;41.89;54.33;;
61095;Laerm;20450;49.074;9.158;2023-05-10T05:16:06;44.09;41.88;51.96;;
61095;Laerm;20450;49.074;9.158;2023-05-10T05:18:33;44.15;41.96;52.44;;
61095;Laerm;20450;49.074;9.158;2023-05-10T05:21:00;44.14;41.96;53.09;;
61095;Laerm;20450;49.074;9.158;2023-05-10T05:23:27;43.88;41.82;53.46;;
61095;Laerm;20450;49.074;9.158;2023-05-10T05:25:54;44.33;41.89;53.89;;
61095;Laerm;20450;49.074;9.158;2023-05-10T05:28:22;44.17;41.89;52.58;;
61095;Laerm;20450;49.074;9.158;2023-05-10T05:30:49;43.95;42.16;51.72;;
61095;Laerm;20450;49.074;9.158;2023-05-10T05:33:16;43.80;41.89;49.02;;
61095;Laerm;20450;49.074;9.158;2023-05-10T05:35:43;43.83;41.68;55.47;;
61095;Laerm;20450;49.074;9.158;2023-05-10T05:38:10;44.08;42.29;57.27;;
61095;Laerm;20450;49.074;9.158;2023-05-10T05:40:37;44.19;41.75;52.91;;
61095;Laerm;20450;49.074;9.158;2023-05-10T05:43:03;43.65;41.82;47.67;;
61095;Laerm;20450;49.074;9.158;2023-05-10T05:45:32;43.96;41.82;52.19;;
61095;Laerm;20450;49.074;9.158;2023-05-10T05:47:58;43.86;41.30;47.63;;
61095;Laerm;20450;49.074;9.158;2023-05-10T05:50:26;43.97;41.68;51.82;;
61095;Laerm;20450;49.074;9.158;2023-05-10T05:52:53;44.66;42.03;54.39;;
61095;Laerm;20450;49.074;9.158;2023-05-10T05:55:21;43.46;41.46;48.48;;
61095;Laerm;20450;49.074;9.158;2023-05-10T05:57:50;43.71;41.68;49.77;;
61095;Laerm;20450;49.074;9.158;2023-05-10T06:00:18;44.06;42.03;56.74;;
61095;Laerm;20450;49.074;9.158;2023-05-10T06:02:46;44.01;41.89;53.61;;
61095;Laerm;20450;49.074;9.158;2023-05-10T06:05:14;44.09;41.89;55.92;;
61095;Laerm;20450;49.074;9.158;2023-05-10T06:07:43;44.41;41.61;58.05;;
61095;Laerm;20450;49.074;9.158;2023-05-10T06:10:10;44.24;41.89;58.02;;
61095;Laerm;20450;49.074;9.158;2023-05-10T06:12:37;44.35;41.89;58.39;;
61095;Laerm;20450;49.074;9.158;2023-05-10T06:15:05;44.01;42.03;52.76;;
61095;Laerm;20450;49.074;9.158;2023-05-10T06:17:32;43.84;41.82;50.52;;
61095;Laerm;20450;49.074;9.158;2023-05-10T06:20:01;44.33;42.29;49.74;;
61095;Laerm;20450;49.074;9.158;2023-05-10T06:22:28;44.72;42.82;51.38;;
61095;Laerm;20450;49.074;9.158;2023-05-10T06:24:55;44.84;43.14;48.13;;
61095;Laerm;20450;49.074;9.158;2023-05-10T06:27:23;44.76;42.65;55.34;;
61095;Laerm;20450;49.074;9.158;2023-05-10T06:29:50;44.93;43.49;47.81;;
61095;Laerm;20450;49.074;9.158;2023-05-10T06:32:25;44.50;42.09;51.72;;
61095;Laerm;20450;49.074;9.158;2023-05-10T06:34:52;44.83;42.41;54.57;;
61095;Laerm;20450;49.074;9.158;2023-05-10T06:37:21;44.53;42.41;53.57;;
61095;Laerm;20450;49.074;9.158;2023-05-10T06:39:49;44.67;42.59;49.11;;
61095;Laerm;20450;49.074;9.158;2023-05-10T06:42:16;44.88;41.96;51.53;;
61095;Laerm;20450;49.074;9.158;2023-05-10T06:44:45;45.15;43.29;50.41;;
61095;Laerm;20450;49.074;9.158;2023-05-10T06:47:12;44.96;42.09;50.87;;
61095;Laerm;20450;49.074;9.158;2023-05-10T06:49:39;45.44;43.54;51.70;;
61095;Laerm;20450;49.074;9.158;2023-05-10T06:52:06;48.64;43.58;67.22;;
61095;Laerm;20450;49.074;9.158;2023-05-10T06:54:35;46.02;44.15;51.64;;
61095;Laerm;20450;49.074;9.158;2023-05-10T06:57:03;46.01;43.99;52.86;;
61095;Laerm;20450;49.074;9.158;2023-05-10T06:59:38;45.59;43.34;53.66;;
61095;Laerm;20450;49.074;9.158;2023-05-10T07:02:06;46.17;43.72;49.29;;
61095;Laerm;20450;49.074;9.158;2023-05-10T07:04:33;45.77;43.99;50.21;;
61095;Laerm;20450;49.074;9.158;2023-05-10T07:07:00;46.89;43.81;58.36;;
61095;Laerm;20450;49.074;9.158;2023-05-10T07:09:27;45.82;43.99;54.05;;
61095;Laerm;20450;49.074;9.158;2023-05-10T07:11:56;46.30;44.15;55.67;;
61095;Laerm;20450;49.074;9.158;2023-05-10T07:16:55;46.04;43.94;54.60;;
61095;Laerm;20450;49.074;9.158;2023-05-10T07:19:22;45.59;43.39;59.60;;
61095;Laerm;20450;49.074;9.158;2023-05-10T07:21:49;44.79;42.88;46.84;;
61095;Laerm;20450;49.074;9.158;2023-05-10T07:24:17;44.77;42.71;47.68;;
61095;Laerm;20450;49.074;9.158;2023-05-10T07:26:43;45.40;43.19;49.52;;
61095;Laerm;20450;49.074;9.158;2023-05-10T07:29:12;44.61;41.96;55.86;;
61095;Laerm;20450;49.074;9.158;2023-05-10T07:31:39;45.05;42.93;53.77;;
61095;Laerm;20450;49.074;9.158;2023-05-10T07:34:06;45.16;43.09;48.26;;
61095;Laerm;20450;49.074;9.158;2023-05-10T07:36:33;45.29;43.49;51.64;;
61095;Laerm;20450;49.074;9.158;2023-05-10T07:39:00;44.81;42.71;49.65;;
61095;Laerm;20450;49.074;9.158;2023-05-10T07:41:27;44.65;42.22;47.93;;
61095;Laerm;20450;49.074;9.158;2023-05-10T07:43:54;45.15;42.93;48.32;;
61095;Laerm;20450;49.074;9.158;2023-05-10T07:46:22;44.98;42.59;47.20;;
61095;Laerm;20450;49.074;9.158;2023-05-10T07:48:50;45.37;43.34;47.70;;
61095;Laerm;20450;49.074;9.158;2023-05-10T07:51:17;45.15;42.71;52.09;;
61095;Laerm;20450;49.074;9.158;2023-05-10T07:53:44;44.69;42.82;50.35;;
61095;Laerm;20450;49.074;9.158;2023-05-10T07:56:23;44.98;42.59;51.47;;
61095;Laerm;20450;49.074;9.158;2023-05-10T07:58:50;45.30;43.29;49.79;;
61095;Laerm;20450;49.074;9.158;2023-05-10T08:01:18;45.10;42.88;55.16;;
61095;Laerm;20450;49.074;9.158;2023-05-10T08:03:46;45.30;43.04;54.63;;
61095;Laerm;20450;49.074;9.158;2023-05-10T08:06:14;45.87;42.74;57.99;;
61095;Laerm;20450;49.074;9.158;2023-05-10T08:08:41;45.29;42.98;52.17;;
61095;Laerm;20450;49.074;9.158;2023-05-10T08:11:09;45.51;43.72;51.72;;
61095;Laerm;20450;49.074;9.158;2023-05-10T08:13:36;45.34;42.88;49.32;;
61095;Laerm;20450;49.074;9.158;2023-05-10T08:16:03;45.53;43.60;53.95;;
61095;Laerm;20450;49.074;9.158;2023-05-10T08:18:30;44.96;42.71;52.70;;
61095;Laerm;20450;49.074;9.158;2023-05-10T08:20:58;47.92;43.49;68.15;;
61095;Laerm;20450;49.074;9.158;2023-05-10T08:23:25;44.66;42.53;52.32;;
61095;Laerm;20450;49.074;9.158;2023-05-10T08:25:53;43.85;41.82;49.14;;
61095;Laerm;20450;49.074;9.158;2023-05-10T08:28:20;44.12;42.03;51.80;;
61095;Laerm;20450;49.074;9.158;2023-05-10T08:30:47;44.18;42.09;50.18;;
61095;Laerm;20450;49.074;9.158;2023-05-10T08:33:17;44.52;41.89;52.97;;
61095;Laerm;20450;49.074;9.158;2023-05-10T08:35:44;44.76;42.41;55.21;;
61095;Laerm;20450;49.074;9.158;2023-05-10T08:38:12;44.30;42.47;51.14;;
61095;Laerm;20450;49.074;9.158;2023-05-10T08:40:42;43.78;41.46;46.66;;
61095;Laerm;20450;49.074;9.158;2023-05-10T08:43:12;45.18;41.82;61.02;;
61095;Laerm;20450;49.074;9.158;2023-05-10T08:45:42;44.46;42.76;48.36;;
61095;Laerm;20450;49.074;9.158;2023-05-10T08:48:10;44.32;42.35;50.27;;
61095;Laerm;20450;49.074;9.158;2023-05-10T08:50:39;43.98;41.82;47.16;;
61095;Laerm;20450;49.074;9.158;2023-05-10T08:53:11;44.25;42.47;51.44;;
61095;Laerm;20450;49.074;9.158;2023-05-10T08:55:40;43.92;42.22;46.62;;
61095;Laerm;20450;49.074;9.158;2023-05-10T08:58:08;43.91;42.22;49.85;;
61095;Laerm;20450;49.074;9.158;2023-05-10T09:00:36;43.56;41.30;48.13;;
61095;Laerm;20450;49.074;9.158;2023-05-10T09:03:05;43.62;41.38;52.76;;
61095;Laerm;20450;49.074;9.158;2023-05-10T09:05:33;44.46;41.75;60.30;;
61095;Laerm;20450;49.074;9.158;2023-05-10T09:08:01;44.04;42.09;51.51;;
61095;Laerm;20450;49.074;9.158;2023-05-10T09:10:30;44.46;42.22;51.59;;
61095;Laerm;20450;49.074;9.158;2023-05-10T09:12:58;44.65;42.35;54.90;;
61095;Laerm;20450;49.074;9.158;2023-05-10T09:15:26;44.45;41.46;53.60;;
61095;Laerm;20450;49.074;9.158;2023-05-10T09:17:57;44.39;41.96;54.98;;
61095;Laerm;20450;49.074;9.158;2023-05-10T09:20:25;44.56;42.29;55.51;;
61095;Laerm;20450;49.074;9.158;2023-05-10T09:22:53;44.17;41.82;53.55;;
61095;Laerm;20450;49.074;9.158;2023-05-10T09:25:20;44.04;42.16;47.59;;
61095;Laerm;20450;49.074;9.158;2023-05-10T09:27:49;44.21;42.16;52.64;;
61095;Laerm;20450;49.074;9.158;2023-05-10T09:30:18;43.99;42.09;50.39;;
61095;Laerm;20450;49.074;9.158;2023-05-10T09:32:54;43.83;41.61;47.81;;
61095;Laerm;20450;49.074;9.158;2023-05-10T09:35:24;44.12;41.75;49.65;;
61095;Laerm;20450;49.074;9.158;2023-05-10T09:37:57;44.36;42.53;48.63;;
61095;Laerm;20450;49.074;9.158;2023-05-10T09:40:26;44.36;41.38;52.96;;
61095;Laerm;20450;49.074;9.158;2023-05-10T09:42:58;45.32;42.76;57.70;;
61095;Laerm;20450;49.074;9.158;2023-05-10T09:45:28;44.41;42.22;47.81;;
61095;Laerm;20450;49.074;9.158;2023-05-10T09:47:58;44.41;42.22;55.00;;
61095;Laerm;20450;49.074;9.158;2023-05-10T09:50:27;44.17;41.94;49.89;;
61095;Laerm;20450;49.074;9.158;2023-05-10T09:52:57;44.42;42.59;53.32;;
61095;Laerm;20450;49.074;9.158;2023-05-10T09:55:38;44.09;42.47;45.91;;
61095;Laerm;20450;49.074;9.158;2023-05-10T09:58:08;44.27;41.68;49.96;;
61095;Laerm;20450;49.074;9.158;2023-05-10T10:00:36;44.30;42.35;48.51;;
61095;Laerm;20450;49.074;9.158;2023-05-10T10:03:05;43.68;40.53;47.12;;
61095;Laerm;20450;49.074;9.158;2023-05-10T10:05:35;43.95;41.89;49.60;;
61095;Laerm;20450;49.074;9.158;2023-05-10T10:08:05;43.65;41.46;51.79;;
61095;Laerm;20450;49.074;9.158;2023-05-10T10:10:33;44.03;39.92;53.82;;
61095;Laerm;20450;49.074;9.158;2023-05-10T10:13:02;43.59;40.98;51.80;;
61095;Laerm;20450;49.074;9.158;2023-05-10T10:15:33;43.89;41.82;47.34;;
61095;Laerm;20450;49.074;9.158;2023-05-10T10:18:01;44.57;42.53;50.32;;
61095;Laerm;20450;49.074;9.158;2023-05-10T10:20:28;44.89;42.29;52.66;;
61095;Laerm;20450;49.074;9.158;2023-05-10T10:22:55;44.59;42.36;67.52;;
61095;Laerm;20450;49.074;9.158;2023-05-10T10:25:22;44.25;42.29;55.47;;
61095;Laerm;20450;49.074;9.158;2023-05-10T10:28:09;44.15;41.96;56.17;;
61095;Laerm;20450;49.074;9.158;2023-05-10T10:30:48;44.08;41.89;57.13;;
61095;Laerm;20450;49.074;9.158;2023-05-10T10:33:40;43.87;42.35;56.06;;
61095;Laerm;20450;49.074;9.158;2023-05-10T10:36:15;43.77;41.38;58.66;;
61095;Laerm;20450;49.074;9.158;2023-05-10T10:38:59;44.23;41.89;58.53;;
61095;Laerm;20450;49.074;9.158;2023-05-10T10:41:30;43.79;41.61;50.17;;
61095;Laerm;20450;49.074;9.158;2023-05-10T10:44:37;43.70;41.96;51.75;;
61095;Laerm;20450;49.074;9.158;2023-05-10T10:47:23;43.67;41.38;57.78;;
61095;Laerm;20450;49.074;9.158;2023-05-10T10:50:02;43.95;41.46;53.38;;
61095;Laerm;20450;49.074;9.158;2023-05-10T10:52:32;43.99;41.89;52.98;;
61095;Laerm;20450;49.074;9.158;2023-05-10T10:55:03;43.81;41.89;53.78;;
61095;Laerm;20450;49.074;9.158;2023-05-10T10:57:42;44.42;41.53;54.89;;
61095;Laerm;20450;49.074;9.158;2023-05-10T11:00:25;44.02;42.29;47.42;;
61095;Laerm;20450;49.074;9.158;2023-05-10T11:02:58;44.34;42.41;52.15;;
61095;Laerm;20450;49.074;9.158;2023-05-10T11:05:39;43.93;41.89;53.54;;
61095;Laerm;20450;49.074;9.158;2023-05-10T11:08:26;43.39;40.89;47.34;;
61095;Laerm;20450;49.074;9.158;2023-05-10T11:11:05;44.19;41.53;53.87;;
61095;Laerm;20450;49.074;9.158;2023-05-10T11:13:37;43.82;41.68;47.36;;
61095;Laerm;20450;49.074;9.158;2023-05-10T11:16:16;43.79;41.61;49.24;;
61095;Laerm;20450;49.074;9.158;2023-05-10T11:18:59;43.91;41.68;52.21;;
61095;Laerm;20450;49.074;9.158;2023-05-10T11:21:28;43.91;42.16;49.00;;
61095;Laerm;20450;49.074;9.158;2023-05-10T11:23:57;44.02;42.29;47.83;;
61095;Laerm;20450;49.074;9.158;2023-05-10T11:26:30;44.03;42.03;54.29;;
61095;Laerm;20450;49.074;9.158;2023-05-10T11:28:57;43.78;42.09;47.65;;
61095;Laerm;20450;49.074;9.158;2023-05-10T11:31:25;44.30;42.22;49.67;;
61095;Laerm;20450;49.074;9.158;2023-05-10T11:33:55;44.46;42.22;53.90;;
61095;Laerm;20450;49.074;9.158;2023-05-10T11:36:25;44.13;41.89;48.78;;
61095;Laerm;20450;49.074;9.158;2023-05-10T11:38:55;43.97;42.09;48.18;;
61095;Laerm;20450;49.074;9.158;2023-05-10T11:41:24;44.33;41.88;52.54;;
61095;Laerm;20450;49.074;9.158;2023-05-10T11:43:54;44.01;42.03;52.48;;
61095;Laerm;20450;49.074;9.158;2023-05-10T11:46:23;43.65;41.38;46.57;;
61095;Laerm;20450;49.074;9.158;2023-05-10T11:48:55;43.89;41.75;48.32;;
61095;Laerm;20450;49.074;9.158;2023-05-10T11:51:24;44.05;42.29;45.80;;
61095;Laerm;20450;49.074;9.158;2023-05-10T11:53:56;44.11;42.35;49.04;;
61095;Laerm;20450;49.074;9.158;2023-05-10T11:56:24;43.46;40.71;50.16;;
61095;Laerm;20450;49.074;9.158;2023-05-10T11:58:54;43.82;41.46;50.79;;
61095;Laerm;20450;49.074;9.158;2023-05-10T12:01:23;44.40;41.82;55.79;;
61095;Laerm;20450;49.074;9.158;2023-05-10T12:03:53;44.94;42.47;57.38;;
61095;Laerm;20450;49.074;9.158;2023-05-10T12:06:25;43.92;42.03;47.48;;
61095;Laerm;20450;49.074;9.158;2023-05-10T12:08:54;44.22;41.75;51.03;;
61095;Laerm;20450;49.074;9.158;2023-05-10T12:11:26;44.17;41.89;51.88;;
61095;Laerm;20450;49.074;9.158;2023-05-10T12:13:54;43.76;41.06;56.59;;
61095;Laerm;20450;49.074;9.158;2023-05-10T12:16:24;43.87;41.53;51.44;;
61095;Laerm;20450;49.074;9.158;2023-05-10T12:18:53;43.86;41.53;48.54;;
61095;Laerm;20450;49.074;9.158;2023-05-10T12:21:21;44.09;41.61;48.03;;
61095;Laerm;20450;49.074;9.158;2023-05-10T12:23:52;43.75;41.46;48.43;;
61095;Laerm;20450;49.074;9.158;2023-05-10T12:26:22;45.36;40.80;63.08;;
61095;Laerm;20450;49.074;9.158;2023-05-10T12:28:49;44.26;41.96;47.18;;
61095;Laerm;20450;49.074;9.158;2023-05-10T12:31:16;43.94;41.53;48.03;;
61095;Laerm;20450;49.074;9.158;2023-05-10T12:33:45;44.31;41.96;54.07;;
61095;Laerm;20450;49.074;9.158;2023-05-10T12:36:16;45.23;42.16;54.54;;
61095;Laerm;20450;49.074;9.158;2023-05-10T12:38:45;44.15;42.03;50.93;;
61095;Laerm;20450;49.074;9.158;2023-05-10T12:41:15;44.24;41.94;50.14;;
61095;Laerm;20450;49.074;9.158;2023-05-10T12:43:45;44.43;41.14;53.09;;
61095;Laerm;20450;49.074;9.158;2023-05-10T12:46:14;43.80;41.14;49.85;;
61095;Laerm;20450;49.074;9.158;2023-05-10T12:48:43;43.82;41.82;46.13;;
61095;Laerm;20450;49.074;9.158;2023-05-10T12:51:10;43.69;41.38;49.02;;
61095;Laerm;20450;49.074;9.158;2023-05-10T12:53:39;44.22;41.82;51.77;;
61095;Laerm;20450;49.074;9.158;2023-05-10T12:56:53;44.42;42.03;55.57;;
61095;Laerm;20450;49.074;9.158;2023-05-10T12:59:20;43.87;42.09;48.29;;
61095;Laerm;20450;49.074;9.158;2023-05-10T13:01:47;44.23;42.09;48.90;;
61095;Laerm;20450;49.074;9.158;2023-05-10T13:04:14;44.81;42.59;53.91;;
61095;Laerm;20450;49.074;9.158;2023-05-10T13:06:41;43.88;41.89;47.57;;
61095;Laerm;20450;49.074;9.158;2023-05-10T13:09:08;44.19;41.38;50.31;;
61095;Laerm;20450;49.074;9.158;2023-05-10T13:11:35;44.07;41.82;48.55;;
61095;Laerm;20450;49.074;9.158;2023-05-10T13:14:03;44.08;42.03;47.08;;
61095;Laerm;20450;49.074;9.158;2023-05-10T13:16:30;44.26;42.22;56.87;;
61095;Laerm;20450;49.074;9.158;2023-05-10T13:18:58;44.19;42.29;55.89;;
61095;Laerm;20450;49.074;9.158;2023-05-10T13:21:25;45.24;42.29;67.51;;
61095;Laerm;20450;49.074;9.158;2023-05-10T13:23:53;44.16;41.68;55.63;;
61095;Laerm;20450;49.074;9.158;2023-05-10T13:26:20;43.95;41.68;56.48;;
61095;Laerm;20450;49.074;9.158;2023-05-10T13:28:47;45.82;42.16;61.92;;
61095;Laerm;20450;49.074;9.158;2023-05-10T13:31:16;44.31;41.89;47.50;;
61095;Laerm;20450;49.074;9.158;2023-05-10T13:33:43;44.13;42.16;48.12;;
61095;Laerm;20450;49.074;9.158;2023-05-10T13:36:10;44.26;42.03;50.86;;
61095;Laerm;20450;49.074;9.158;2023-05-10T13:38:37;44.18;41.89;50.74;;
61095;Laerm;20450;49.074;9.158;2023-05-10T13:41:04;44.15;41.96;52.21;;
61095;Laerm;20450;49.074;9.158;2023-05-10T13:43:32;44.15;41.82;49.35;;
61095;Laerm;20450;49.074;9.158;2023-05-10T13:46:00;44.17;41.75;49.57;;
61095;Laerm;20450;49.074;9.158;2023-05-10T13:48:29;44.28;41.96;49.28;;
61095;Laerm;20450;49.074;9.158;2023-05-10T13:50:55;43.97;41.46;46.20;;
61095;Laerm;20450;49.074;9.158;2023-05-10T13:53:23;44.33;41.53;51.33;;
61095;Laerm;20450;49.074;9.158;2023-05-10T13:55:49;44.29;42.03;50.81;;
61095;Laerm;20450;49.074;9.158;2023-05-10T13:58:16;43.87;41.75;48.29;;
61095;Laerm;20450;49.074;9.158;2023-05-10T14:00:43;44.41;42.22;54.23;;
61095;Laerm;20450;49.074;9.158;2023-05-10T14:03:10;44.55;41.82;53.94;;
61095;Laerm;20450;49.074;9.158;2023-05-10T14:05:39;45.26;42.47;61.29;;
61095;Laerm;20450;49.074;9.158;2023-05-10T14:08:06;44.97;42.41;58.21;;